KDAL/DAL METAR and TAF weather

Enter ICAO airport designator
Station Type Date Time Source
KDAL METAR 2020/02/29 02:53 UTC NOAA

KDAL 290253Z 15003KT 10SM FEW250 BKN300 13/M01 A3031 RMK AO2 SLP261 T01281006 53007


Station Type Date Time Source
KDAL Decoded METAR 2020/02/29 02:53 UTC NOAA

DALLAS LOVE FIELD, TX, United States (KDAL) 32-51N 096-51W 158M
Feb 28, 2020 - 09:53 PM EST / 2020.02.29 0253 UTC
Wind: from the SSE (150 degrees) at 3 MPH (3 KT):0
Visibility: 10 mile(s):0
Sky conditions: mostly cloudy
Temperature: 55.0 F (12.8 C)
Dew Point: 30.9 F (-0.6 C)
Relative Humidity: 39%
Pressure (altimeter): 30.31 in. Hg (1026 hPa)
Pressure tendency: 0.02 inches (0.7 hPa) higher than three hours ago
ob: KDAL 290253Z 15003KT 10SM FEW250 BKN300 13/M01 A3031 RMK AO2 SLP261 T01281006 53007
cycle: 3

Station Type Date Time Source
KDAL TAF 2020/02/29 03:04 UTC NOAA

TAF
AMD KDAL 290303Z 2903/2924 19003KT P6SM FEW250
FM291500 19005KT P6SM SCT250
FM292000 18015G25KT P6SM SCT250

Example: see airport list